Ernest A. Love Field
KPRC : now visible

Airfield :











YOU CAN JOIN US ON...

 
LOGIN :

Register | Disclaimer

   EN    FR    IT 

 









Legend :    VFR   Marginal VFR   IFR   Intensive IFR   Very Intensive IFR
Visi :
Ceiling :
>= 8 km
>= 3000ft
5 to 8 km
1000 to 3000 ft
1500m to 5 km
500 to 1000 ft
800 to 1500m
200 to 500 ft
< 800m
< 200 ft
Symbols :   Thunderstorms  Fog  Heavy snow  Heavy precipitations  Wind > 20 kt






- Airport Elevation : 5045 ft
- IATA code : PRC


KPRC - Ernest A. Love Field

CURRENT METAR :
  • 280053Z 25014KT 10SM CLR 31/M03 A3005 RMK AO2 SLP096 T03061033

EXPIRED METARs :
  • 272353Z 25012KT 10SM CLR 32/M04 A3006 RMK AO2 SLP093 T03221039 10328 20289 56010
  • 272253Z 31006G14KT 10SM CLR 32/M04 A3006 RMK AO2 SLP092 T03221044

TAF KPRC
Valid from the 28 at 00:00 until the 29 at 00:00 UTC


272348Z 2800/2824 25011KT P6SM FEW140
FM280200 23005KT P6SM SKC
FM281900 26009G16KT P6SM SCT140
KZAB FIR / North America



MET'MAP, your aeronautical weather chart ! - Copyright ORBIFLY December 2007 - Disclaimer

ORBIFLY MET'MAP TEAM :

Programming & Development : Alexandra Zaïnal
Concept & original design : Baudouin d'Aumeries
Assistance for programming : Marc-Olivier Méhu
Technical & hardware support : Manuel Goepfert

Contact : metmap@orbifly.com




SOURCES & CREDITS :

   NOAA       Earth
Advisory